Taichung Ching Chuang Kang Airport
RCMQ : now visible

Airfield :











YOU CAN JOIN US ON...

 
LOGIN :

Register | Disclaimer

   EN    FR    IT 

 









Legend :    VFR   Marginal VFR   IFR   Intensive IFR   Very Intensive IFR
Visi :
Ceiling :
>= 8 km
>= 3000ft
5 to 8 km
1000 to 3000 ft
1500m to 5 km
500 to 1000 ft
800 to 1500m
200 to 500 ft
< 800m
< 200 ft
Symbols :   Thunderstorms  Fog  Heavy snow  Heavy precipitations  Wind > 20 kt






- Airport Elevation : 663 ft
- IATA code : RMQ


RCMQ - Taichung Ching Chuang Kang

CURRENT METAR :
  • 220030Z 18012KT 9999 FEW010 BKN060 BKN120 28/20 Q1010 NOSIG RMK A2983

EXPIRED METARs :
  • 220000Z 18009KT 9999 FEW010 SCT060 BKN120 27/21 Q1010 NOSIG RMK A2983
  • 212330Z 18007KT 9999 FEW010 SCT060 BKN120 26/21 Q1010 NOSIG RMK A2983
  • 212300Z 22006KT 9999 FEW010 SCT060 BKN120 27/20 Q1010 NOSIG RMK A2983
  • 212230Z 19005KT 9999 FEW010 SCT060 BKN120 25/21 Q1010 NOSIG RMK A2983
  • 212200Z 20002KT 9999 FEW010 SCT060 BKN120 24/21 Q1009 NOSIG RMK A2982
  • 212130Z 20004KT 9000 FEW010 BKN120 24/21 Q1009 NOSIG RMK A2981
  • 212100Z 22003KT 8000 FEW010 BKN120 25/21 Q1009 NOSIG RMK A2980
  • 212030Z 19006KT 8000 FEW010 BKN120 25/21 Q1009 RMK A2980
  • 212000Z 18006KT 8000 FEW010 BKN120 25/22 Q1009 RMK A2980

TAF TAF RCMQ
Valid from the 22 at 00:00 until the 23 at 00:00 UTC


212300Z 2200/2224 18004KT 9999 FEW010 SCT060 BKN120 TX30/2205Z TN22/2221Z
BECMG 2201/2204 24012KT FEW010 BKN060
TEMPO 2206/2211 8000 -RA FEW010 BKN030
BECMG 2212/2215 8000 -RA FEW008 BKN030
TEMPO 2218/2223 6000 -RA FEW008 BKN016
RCAA FIR / Asia



MET'MAP, your aeronautical weather chart ! - Copyright ORBIFLY December 2007 - Disclaimer

ORBIFLY MET'MAP TEAM :

Programming & Development : Alexandra Zaïnal
Original concept : Baudouin d'Aumeries
Technical & hardware support : Manuel Goepfert
Assistance : Marc-Olivier Méhu




SOURCES & CREDITS :

   NOAA       Earth
Advisory